sensor_id;sensor_type;location;lat;lon;timestamp;pressure;altitude;pressure_sealevel;temperature;humidity
56270;BME280;42176;43.240;27.880;2023-02-05T00:00:50;99933.34;;;0.12;100.00
56270;BME280;42176;43.240;27.880;2023-02-05T00:03:16;99914.16;;;-0.40;100.00
56270;BME280;42176;43.240;27.880;2023-02-05T00:05:41;99915.06;;;-0.83;100.00
56270;BME280;42176;43.240;27.880;2023-02-05T00:08:07;99910.41;;;-0.53;100.00
56270;BME280;42176;43.240;27.880;2023-02-05T00:10:32;99924.09;;;-0.19;100.00
56270;BME280;42176;43.240;27.880;2023-02-05T00:12:58;100008.38;;;-0.17;100.00
56270;BME280;42176;43.240;27.880;2023-02-05T00:15:23;99905.06;;;-0.61;100.00
56270;BME280;42176;43.240;27.880;2023-02-05T00:17:49;99911.63;;;-0.82;100.00
56270;BME280;42176;43.240;27.880;2023-02-05T00:20:14;99924.63;;;-0.37;100.00
56270;BME280;42176;43.240;27.880;2023-02-05T00:22:40;99957.16;;;-0.15;100.00
56270;BME280;42176;43.240;27.880;2023-02-05T00:25:05;99933.91;;;-0.04;100.00
56270;BME280;42176;43.240;27.880;2023-02-05T00:27:32;99894.91;;;0.01;100.00
56270;BME280;42176;43.240;27.880;2023-02-05T00:29:57;99952.66;;;-0.24;100.00
56270;BME280;42176;43.240;27.880;2023-02-05T00:32:23;99929.09;;;-0.74;100.00
56270;BME280;42176;43.240;27.880;2023-02-05T00:34:48;99939.94;;;-0.96;100.00
56270;BME280;42176;43.240;27.880;2023-02-05T00:37:14;99989.91;;;-0.29;100.00
56270;BME280;42176;43.240;27.880;2023-02-05T00:39:39;99921.94;;;0.07;100.00
56270;BME280;42176;43.240;27.880;2023-02-05T00:42:05;99972.09;;;-0.92;100.00
56270;BME280;42176;43.240;27.880;2023-02-05T00:44:30;99922.41;;;-0.63;100.00
56270;BME280;42176;43.240;27.880;2023-02-05T00:46:55;99927.25;;;-0.37;100.00
56270;BME280;42176;43.240;27.880;2023-02-05T00:49:21;99933.44;;;-0.29;100.00
56270;BME280;42176;43.240;27.880;2023-02-05T00:51:46;99925.75;;;-0.24;100.00
56270;BME280;42176;43.240;27.880;2023-02-05T00:54:12;99936.63;;;-0.46;100.00
56270;BME280;42176;43.240;27.880;2023-02-05T00:56:37;99933.88;;;-0.96;100.00
56270;BME280;42176;43.240;27.880;2023-02-05T00:59:03;99941.09;;;-0.83;100.00
56270;BME280;42176;43.240;27.880;2023-02-05T01:01:28;99936.31;;;-0.61;100.00
56270;BME280;42176;43.240;27.880;2023-02-05T01:03:54;99948.91;;;-0.38;100.00
56270;BME280;42176;43.240;27.880;2023-02-05T01:06:19;99975.97;;;-0.74;100.00
56270;BME280;42176;43.240;27.880;2023-02-05T01:08:45;99938.66;;;-1.15;100.00
56270;BME280;42176;43.240;27.880;2023-02-05T01:11:11;99946.72;;;-1.02;100.00
56270;BME280;42176;43.240;27.880;2023-02-05T01:13:37;99947.31;;;-0.74;100.00
56270;BME280;42176;43.240;27.880;2023-02-05T01:16:03;99947.69;;;-0.56;100.00
56270;BME280;42176;43.240;27.880;2023-02-05T01:18:29;99982.66;;;-0.86;100.00
56270;BME280;42176;43.240;27.880;2023-02-05T01:20:54;99963.00;;;-1.13;100.00
56270;BME280;42176;43.240;27.880;2023-02-05T01:23:20;99963.25;;;-1.02;100.00
56270;BME280;42176;43.240;27.880;2023-02-05T01:25:45;99985.50;;;-0.75;100.00
56270;BME280;42176;43.240;27.880;2023-02-05T01:28:11;99969.63;;;-0.87;100.00
56270;BME280;42176;43.240;27.880;2023-02-05T01:30:36;99948.84;;;-1.24;100.00
56270;BME280;42176;43.240;27.880;2023-02-05T01:33:03;100018.88;;;-1.32;100.00
56270;BME280;42176;43.240;27.880;2023-02-05T01:35:28;99975.44;;;-0.99;100.00
56270;BME280;42176;43.240;27.880;2023-02-05T01:37:54;99970.50;;;-0.87;100.00
56270;BME280;42176;43.240;27.880;2023-02-05T01:40:20;99973.25;;;-0.79;100.00
56270;BME280;42176;43.240;27.880;2023-02-05T01:42:45;99949.59;;;-1.30;100.00
56270;BME280;42176;43.240;27.880;2023-02-05T01:48:02;99949.19;;;-1.09;100.00
56270;BME280;42176;43.240;27.880;2023-02-05T01:52:54;99991.31;;;-0.87;100.00
56270;BME280;42176;43.240;27.880;2023-02-05T01:55:23;99978.94;;;-0.97;100.00
56270;BME280;42176;43.240;27.880;2023-02-05T01:57:49;99988.66;;;-1.28;100.00
56270;BME280;42176;43.240;27.880;2023-02-05T02:00:15;100002.59;;;-1.61;100.00
56270;BME280;42176;43.240;27.880;2023-02-05T02:02:41;99992.38;;;-1.17;100.00
56270;BME280;42176;43.240;27.880;2023-02-05T02:05:17;99977.03;;;-1.04;100.00
56270;BME280;42176;43.240;27.880;2023-02-05T02:07:43;99996.94;;;-1.45;100.00
56270;BME280;42176;43.240;27.880;2023-02-05T02:10:10;99996.78;;;-1.85;100.00
56270;BME280;42176;43.240;27.880;2023-02-05T02:12:38;99994.53;;;-1.35;100.00
56270;BME280;42176;43.240;27.880;2023-02-05T02:15:10;99974.31;;;-1.11;100.00
56270;BME280;42176;43.240;27.880;2023-02-05T02:17:38;100014.13;;;-1.50;100.00
56270;BME280;42176;43.240;27.880;2023-02-05T02:20:09;100027.44;;;-2.05;100.00
56270;BME280;42176;43.240;27.880;2023-02-05T02:25:27;99999.13;;;-1.25;100.00
56270;BME280;42176;43.240;27.880;2023-02-05T02:30:36;100019.25;;;-1.53;100.00
56270;BME280;42176;43.240;27.880;2023-02-05T02:35:51;100025.59;;;-1.77;100.00
56270;BME280;42176;43.240;27.880;2023-02-05T02:38:40;100009.09;;;-1.44;100.00
56270;BME280;42176;43.240;27.880;2023-02-05T02:41:18;100028.50;;;-1.29;100.00
56270;BME280;42176;43.240;27.880;2023-02-05T02:43:50;100028.34;;;-1.35;100.00
56270;BME280;42176;43.240;27.880;2023-02-05T02:46:29;100025.91;;;-1.96;100.00
56270;BME280;42176;43.240;27.880;2023-02-05T02:48:59;100029.72;;;-2.46;100.00
56270;BME280;42176;43.240;27.880;2023-02-05T02:51:27;100025.31;;;-1.86;100.00
56270;BME280;42176;43.240;27.880;2023-02-05T02:53:58;100048.63;;;-1.57;100.00
56270;BME280;42176;43.240;27.880;2023-02-05T02:56:26;100043.47;;;-1.54;100.00
56270;BME280;42176;43.240;27.880;2023-02-05T02:58:56;100038.78;;;-2.01;100.00
56270;BME280;42176;43.240;27.880;2023-02-05T03:01:25;100068.69;;;-2.46;100.00
56270;BME280;42176;43.240;27.880;2023-02-05T03:03:58;100047.81;;;-1.88;100.00
56270;BME280;42176;43.240;27.880;2023-02-05T03:06:25;100117.81;;;-1.62;100.00
56270;BME280;42176;43.240;27.880;2023-02-05T03:09:21;100075.69;;;-2.13;100.00
56270;BME280;42176;43.240;27.880;2023-02-05T03:11:50;100085.56;;;-2.61;100.00
56270;BME280;42176;43.240;27.880;2023-02-05T03:14:15;100082.72;;;-2.10;100.00
56270;BME280;42176;43.240;27.880;2023-02-05T03:16:41;100118.88;;;-1.86;100.00
56270;BME280;42176;43.240;27.880;2023-02-05T03:19:07;100071.97;;;-1.91;100.00
56270;BME280;42176;43.240;27.880;2023-02-05T03:21:42;100060.28;;;-2.37;100.00
56270;BME280;42176;43.240;27.880;2023-02-05T03:24:11;100057.06;;;-2.59;100.00
56270;BME280;42176;43.240;27.880;2023-02-05T03:26:37;100086.19;;;-2.10;100.00
56270;BME280;42176;43.240;27.880;2023-02-05T03:29:07;100165.81;;;-1.80;100.00
56270;BME280;42176;43.240;27.880;2023-02-05T03:32:25;100098.41;;;-2.06;100.00
56270;BME280;42176;43.240;27.880;2023-02-05T03:45:38;100145.09;;;-2.38;100.00
56270;BME280;42176;43.240;27.880;2023-02-05T03:59:02;100152.88;;;-2.38;100.00
56270;BME280;42176;43.240;27.880;2023-02-05T04:01:28;100121.88;;;-2.88;100.00
56270;BME280;42176;43.240;27.880;2023-02-05T04:03:54;100157.16;;;-2.40;100.00
56270;BME280;42176;43.240;27.880;2023-02-05T04:06:20;100127.59;;;-2.15;100.00
56270;BME280;42176;43.240;27.880;2023-02-05T04:08:45;100164.53;;;-1.96;100.00
56270;BME280;42176;43.240;27.880;2023-02-05T04:11:11;100135.53;;;-2.10;100.00
56270;BME280;42176;43.240;27.880;2023-02-05T04:13:37;100160.88;;;-2.59;100.00
56270;BME280;42176;43.240;27.880;2023-02-05T04:16:02;100187.16;;;-3.01;100.00
56270;BME280;42176;43.240;27.880;2023-02-05T04:18:28;100203.19;;;-2.34;100.00
56270;BME280;42176;43.240;27.880;2023-02-05T04:20:53;100157.34;;;-2.05;100.00
56270;BME280;42176;43.240;27.880;2023-02-05T04:23:19;100188.09;;;-2.46;100.00
56270;BME280;42176;43.240;27.880;2023-02-05T04:25:44;100181.63;;;-2.86;100.00
56270;BME280;42176;43.240;27.880;2023-02-05T04:28:10;100170.47;;;-2.56;100.00
56270;BME280;42176;43.240;27.880;2023-02-05T04:30:35;100201.91;;;-2.20;100.00
56270;BME280;42176;43.240;27.880;2023-02-05T04:33:01;100208.16;;;-2.13;100.00
56270;BME280;42176;43.240;27.880;2023-02-05T04:35:26;100207.50;;;-2.62;100.00
56270;BME280;42176;43.240;27.880;2023-02-05T04:37:52;100175.72;;;-3.08;100.00
56270;BME280;42176;43.240;27.880;2023-02-05T04:40:17;100194.78;;;-2.54;100.00
56270;BME280;42176;43.240;27.880;2023-02-05T04:42:43;100219.22;;;-2.20;100.00
56270;BME280;42176;43.240;27.880;2023-02-05T04:45:09;100217.72;;;-2.12;100.00
56270;BME280;42176;43.240;27.880;2023-02-05T04:47:35;100203.09;;;-2.65;100.00
56270;BME280;42176;43.240;27.880;2023-02-05T04:50:00;100227.03;;;-3.24;100.00
56270;BME280;42176;43.240;27.880;2023-02-05T04:52:27;100246.78;;;-2.51;100.00
56270;BME280;42176;43.240;27.880;2023-02-05T04:54:52;100206.13;;;-2.23;100.00
56270;BME280;42176;43.240;27.880;2023-02-05T04:57:18;100167.56;;;-2.09;100.00
56270;BME280;42176;43.240;27.880;2023-02-05T04:59:43;100298.38;;;-2.61;100.00
56270;BME280;42176;43.240;27.880;2023-02-05T05:02:08;100237.16;;;-2.81;100.00
56270;BME280;42176;43.240;27.880;2023-02-05T05:04:35;100254.63;;;-2.50;100.00
56270;BME280;42176;43.240;27.880;2023-02-05T05:07:00;100237.66;;;-2.11;100.00
56270;BME280;42176;43.240;27.880;2023-02-05T05:09:26;100271.72;;;-2.02;99.90
56270;BME280;42176;43.240;27.880;2023-02-05T05:11:52;100225.09;;;-2.79;100.00
56270;BME280;42176;43.240;27.880;2023-02-05T05:14:18;100258.66;;;-2.32;100.00
56270;BME280;42176;43.240;27.880;2023-02-05T05:16:43;100219.25;;;-2.46;100.00
56270;BME280;42176;43.240;27.880;2023-02-05T05:19:09;100229.78;;;-2.69;100.00
56270;BME280;42176;43.240;27.880;2023-02-05T05:21:34;100303.28;;;-3.18;100.00
56270;BME280;42176;43.240;27.880;2023-02-05T05:24:00;100286.44;;;-2.55;100.00
56270;BME280;42176;43.240;27.880;2023-02-05T05:26:26;100266.47;;;-2.31;100.00
56270;BME280;42176;43.240;27.880;2023-02-05T05:28:55;100284.91;;;-2.50;100.00
56270;BME280;42176;43.240;27.880;2023-02-05T05:31:22;100290.72;;;-2.83;100.00
56270;BME280;42176;43.240;27.880;2023-02-05T05:33:47;100255.69;;;-3.21;100.00
56270;BME280;42176;43.240;27.880;2023-02-05T05:36:13;100277.63;;;-2.61;100.00
56270;BME280;42176;43.240;27.880;2023-02-05T05:38:39;100254.25;;;-2.35;100.00
56270;BME280;42176;43.240;27.880;2023-02-05T05:41:05;100311.25;;;-2.38;100.00
56270;BME280;42176;43.240;27.880;2023-02-05T05:43:53;100335.75;;;-2.81;100.00
56270;BME280;42176;43.240;27.880;2023-02-05T05:46:24;100303.19;;;-3.22;100.00
56270;BME280;42176;43.240;27.880;2023-02-05T05:48:57;100317.06;;;-2.71;100.00
56270;BME280;42176;43.240;27.880;2023-02-05T05:51:24;100281.97;;;-2.34;100.00
56270;BME280;42176;43.240;27.880;2023-02-05T05:53:51;100325.56;;;-2.75;100.00
56270;BME280;42176;43.240;27.880;2023-02-05T05:56:17;100302.94;;;-3.03;100.00
56270;BME280;42176;43.240;27.880;2023-02-05T05:58:43;100314.50;;;-2.95;100.00
56270;BME280;42176;43.240;27.880;2023-02-05T06:01:09;100307.09;;;-2.58;100.00
56270;BME280;42176;43.240;27.880;2023-02-05T06:03:35;100332.22;;;-2.32;100.00
56270;BME280;42176;43.240;27.880;2023-02-05T06:06:02;100323.81;;;-2.76;100.00
56270;BME280;42176;43.240;27.880;2023-02-05T06:08:29;100330.09;;;-2.94;100.00
56270;BME280;42176;43.240;27.880;2023-02-05T06:10:55;100346.69;;;-3.14;100.00
56270;BME280;42176;43.240;27.880;2023-02-05T06:13:21;100424.75;;;-2.60;100.00
56270;BME280;42176;43.240;27.880;2023-02-05T06:15:46;100389.16;;;-2.38;100.00
56270;BME280;42176;43.240;27.880;2023-02-05T06:18:14;100428.94;;;-2.87;100.00
56270;BME280;42176;43.240;27.880;2023-02-05T06:20:39;100382.41;;;-3.30;100.00
56270;BME280;42176;43.240;27.880;2023-02-05T06:23:05;100371.28;;;-3.03;100.00
56270;BME280;42176;43.240;27.880;2023-02-05T06:25:30;100380.00;;;-2.52;100.00
56270;BME280;42176;43.240;27.880;2023-02-05T06:27:56;100388.06;;;-2.45;100.00
56270;BME280;42176;43.240;27.880;2023-02-05T06:30:21;100389.06;;;-2.89;100.00
56270;BME280;42176;43.240;27.880;2023-02-05T06:32:47;100410.56;;;-3.16;100.00
56270;BME280;42176;43.240;27.880;2023-02-05T06:35:12;100413.69;;;-2.54;100.00
56270;BME280;42176;43.240;27.880;2023-02-05T06:37:38;100410.56;;;-2.19;100.00
56270;BME280;42176;43.240;27.880;2023-02-05T06:40:04;100448.38;;;-2.02;99.54
56270;BME280;42176;43.240;27.880;2023-02-05T06:42:30;100430.91;;;-2.32;99.02
56270;BME280;42176;43.240;27.880;2023-02-05T06:44:55;100450.28;;;-2.70;100.00
56270;BME280;42176;43.240;27.880;2023-02-05T06:47:21;100391.78;;;-3.09;100.00
56270;BME280;42176;43.240;27.880;2023-02-05T06:49:46;100414.31;;;-2.37;100.00
56270;BME280;42176;43.240;27.880;2023-02-05T06:52:12;100437.78;;;-2.08;98.35
56270;BME280;42176;43.240;27.880;2023-02-05T06:54:37;100425.78;;;-2.04;96.45
56270;BME280;42176;43.240;27.880;2023-02-05T06:57:03;100444.81;;;-2.30;96.77
56270;BME280;42176;43.240;27.880;2023-02-05T06:59:28;100446.91;;;-2.92;100.00
56270;BME280;42176;43.240;27.880;2023-02-05T07:01:54;100463.13;;;-3.21;100.00
56270;BME280;42176;43.240;27.880;2023-02-05T07:04:19;100438.06;;;-2.50;100.00
56270;BME280;42176;43.240;27.880;2023-02-05T07:06:45;100450.25;;;-2.23;97.30
56270;BME280;42176;43.240;27.880;2023-02-05T07:09:10;100456.25;;;-2.73;97.76
56270;BME280;42176;43.240;27.880;2023-02-05T07:11:36;100463.81;;;-3.25;99.40
56270;BME280;42176;43.240;27.880;2023-02-05T07:14:02;100449.31;;;-2.74;100.00
56270;BME280;42176;43.240;27.880;2023-02-05T07:16:28;100436.44;;;-2.22;97.52
56270;BME280;42176;43.240;27.880;2023-02-05T07:18:54;100445.63;;;-2.56;95.49
56270;BME280;42176;43.240;27.880;2023-02-05T07:21:20;100446.59;;;-2.77;96.91
56270;BME280;42176;43.240;27.880;2023-02-05T07:23:45;100455.34;;;-2.51;98.92
56270;BME280;42176;43.240;27.880;2023-02-05T07:26:13;100474.78;;;-1.63;93.30
56270;BME280;42176;43.240;27.880;2023-02-05T07:28:40;100439.00;;;-1.16;89.40
56270;BME280;42176;43.240;27.880;2023-02-05T07:31:10;100434.28;;;-0.99;86.72
56270;BME280;42176;43.240;27.880;2023-02-05T07:33:39;100438.25;;;-1.94;88.08
56270;BME280;42176;43.240;27.880;2023-02-05T07:36:07;100449.38;;;-2.48;91.79
56270;BME280;42176;43.240;27.880;2023-02-05T07:38:33;100445.59;;;-2.81;96.04
56270;BME280;42176;43.240;27.880;2023-02-05T07:41:03;100465.53;;;-2.07;92.98
56270;BME280;42176;43.240;27.880;2023-02-05T07:43:28;100422.88;;;-1.60;89.59
56270;BME280;42176;43.240;27.880;2023-02-05T07:46:01;100444.28;;;-1.42;85.75
56270;BME280;42176;43.240;27.880;2023-02-05T07:48:27;100446.28;;;-2.38;89.41
56270;BME280;42176;43.240;27.880;2023-02-05T07:50:52;100419.91;;;-2.97;92.25
56270;BME280;42176;43.240;27.880;2023-02-05T07:53:18;100486.09;;;-2.62;93.53
56270;BME280;42176;43.240;27.880;2023-02-05T07:55:44;100445.88;;;-1.99;89.66
56270;BME280;42176;43.240;27.880;2023-02-05T07:58:10;100445.56;;;-1.82;87.27
56270;BME280;42176;43.240;27.880;2023-02-05T08:00:35;100469.81;;;-2.57;87.71
56270;BME280;42176;43.240;27.880;2023-02-05T08:03:01;100456.75;;;-3.06;90.38
56270;BME280;42176;43.240;27.880;2023-02-05T08:05:27;100463.72;;;-2.82;93.04
56270;BME280;42176;43.240;27.880;2023-02-05T08:07:52;100402.09;;;-2.13;88.79
56270;BME280;42176;43.240;27.880;2023-02-05T08:10:18;100457.19;;;-1.71;85.38
56270;BME280;42176;43.240;27.880;2023-02-05T08:12:43;100421.09;;;-1.89;84.64
56270;BME280;42176;43.240;27.880;2023-02-05T08:15:09;100478.97;;;-2.43;86.47
56270;BME280;42176;43.240;27.880;2023-02-05T08:17:35;100420.66;;;-2.77;88.81
56270;BME280;42176;43.240;27.880;2023-02-05T08:20:00;100470.72;;;-1.81;85.12
56270;BME280;42176;43.240;27.880;2023-02-05T08:22:35;100462.06;;;-1.54;81.07
56270;BME280;42176;43.240;27.880;2023-02-05T08:25:02;100420.78;;;-2.24;83.44
56270;BME280;42176;43.240;27.880;2023-02-05T08:27:31;100441.22;;;-2.35;83.85
56270;BME280;42176;43.240;27.880;2023-02-05T08:29:56;100510.75;;;-0.95;79.50
56270;BME280;42176;43.240;27.880;2023-02-05T08:32:21;100484.56;;;-0.08;73.72
56270;BME280;42176;43.240;27.880;2023-02-05T08:34:47;100419.56;;;0.33;68.18
56270;BME280;42176;43.240;27.880;2023-02-05T08:37:12;100456.47;;;0.49;65.57
56270;BME280;42176;43.240;27.880;2023-02-05T08:39:38;100446.16;;;-0.80;68.30
56270;BME280;42176;43.240;27.880;2023-02-05T08:42:03;100494.00;;;-1.03;70.93
56270;BME280;42176;43.240;27.880;2023-02-05T08:44:29;100490.72;;;-0.38;72.21
56270;BME280;42176;43.240;27.880;2023-02-05T08:46:54;100476.31;;;0.08;64.96
56270;BME280;42176;43.240;27.880;2023-02-05T08:49:20;100519.22;;;0.55;62.07
56270;BME280;42176;43.240;27.880;2023-02-05T08:51:47;100522.03;;;0.99;59.17
56270;BME280;42176;43.240;27.880;2023-02-05T08:54:12;100523.50;;;-0.14;61.38
56270;BME280;42176;43.240;27.880;2023-02-05T08:56:40;100523.03;;;-1.46;67.00
56270;BME280;42176;43.240;27.880;2023-02-05T08:59:05;100539.78;;;-2.13;71.92
56270;BME280;42176;43.240;27.880;2023-02-05T09:01:31;100542.97;;;-1.19;67.91
56270;BME280;42176;43.240;27.880;2023-02-05T09:03:56;100553.59;;;-0.84;66.37
56270;BME280;42176;43.240;27.880;2023-02-05T09:06:21;100550.69;;;-0.93;65.72
56270;BME280;42176;43.240;27.880;2023-02-05T09:08:47;100561.41;;;-1.64;68.14
56270;BME280;42176;43.240;27.880;2023-02-05T09:11:12;100548.50;;;-2.36;70.73
56270;BME280;42176;43.240;27.880;2023-02-05T09:13:38;100565.66;;;-1.66;70.01
56270;BME280;42176;43.240;27.880;2023-02-05T09:16:05;100583.53;;;-1.24;66.64
56270;BME280;42176;43.240;27.880;2023-02-05T09:18:30;100568.38;;;-1.63;67.64
56270;BME280;42176;43.240;27.880;2023-02-05T09:20:55;100562.13;;;-2.17;71.50
56270;BME280;42176;43.240;27.880;2023-02-05T09:23:21;100596.16;;;-2.11;72.08
56270;BME280;42176;43.240;27.880;2023-02-05T09:25:47;100564.25;;;-1.57;68.37
56270;BME280;42176;43.240;27.880;2023-02-05T09:28:13;100571.34;;;-1.52;67.26
56270;BME280;42176;43.240;27.880;2023-02-05T09:30:41;100564.72;;;-2.17;68.67
56270;BME280;42176;43.240;27.880;2023-02-05T09:33:07;100568.31;;;-1.39;68.37
56270;BME280;42176;43.240;27.880;2023-02-05T09:35:34;100567.09;;;-0.39;61.70
56270;BME280;42176;43.240;27.880;2023-02-05T09:38:00;100574.91;;;-1.75;63.33
56270;BME280;42176;43.240;27.880;2023-02-05T09:40:58;100590.56;;;-1.97;69.84
56270;BME280;42176;43.240;27.880;2023-02-05T09:43:53;100603.78;;;-1.15;61.50
56270;BME280;42176;43.240;27.880;2023-02-05T09:49:12;100581.91;;;-2.68;67.21
56270;BME280;42176;43.240;27.880;2023-02-05T09:51:44;100608.59;;;-1.78;63.94
56270;BME280;42176;43.240;27.880;2023-02-05T09:54:22;100590.31;;;-1.29;61.11
56270;BME280;42176;43.240;27.880;2023-02-05T09:56:52;100586.88;;;-1.01;60.46
56270;BME280;42176;43.240;27.880;2023-02-05T09:59:22;100584.53;;;-0.93;59.30
56270;BME280;42176;43.240;27.880;2023-02-05T10:01:55;100612.44;;;-0.89;57.74
56270;BME280;42176;43.240;27.880;2023-02-05T10:04:22;100597.59;;;-1.19;59.51
56270;BME280;42176;43.240;27.880;2023-02-05T10:09:38;100619.13;;;-2.67;66.45
56270;BME280;42176;43.240;27.880;2023-02-05T10:18:24;100636.25;;;-1.04;57.78
56270;BME280;42176;43.240;27.880;2023-02-05T10:21:12;100637.78;;;-1.85;62.67
56270;BME280;42176;43.240;27.880;2023-02-05T10:26:44;100626.09;;;-1.48;64.47
56270;BME280;42176;43.240;27.880;2023-02-05T10:29:18;100653.47;;;-1.08;62.44
56270;BME280;42176;43.240;27.880;2023-02-05T10:34:51;100623.91;;;-1.86;64.03
56270;BME280;42176;43.240;27.880;2023-02-05T10:37:22;100650.56;;;-2.14;66.92
56270;BME280;42176;43.240;27.880;2023-02-05T10:39:49;100604.59;;;-1.44;66.48
56270;BME280;42176;43.240;27.880;2023-02-05T10:44:45;100644.16;;;-0.73;62.37
56270;BME280;42176;43.240;27.880;2023-02-05T10:50:02;100625.56;;;-0.58;63.27
56270;BME280;42176;43.240;27.880;2023-02-05T10:52:30;100623.19;;;-1.05;65.39
56270;BME280;42176;43.240;27.880;2023-02-05T10:54:55;100634.53;;;-1.79;70.15
56270;BME280;42176;43.240;27.880;2023-02-05T10:57:22;100627.81;;;-2.21;73.64
56270;BME280;42176;43.240;27.880;2023-02-05T10:59:56;100608.53;;;-1.29;71.18
56270;BME280;42176;43.240;27.880;2023-02-05T11:02:26;100657.59;;;-0.88;66.50
56270;BME280;42176;43.240;27.880;2023-02-05T11:05:02;100604.50;;;-0.66;64.95
56270;BME280;42176;43.240;27.880;2023-02-05T11:07:37;100613.03;;;-0.98;64.99
56270;BME280;42176;43.240;27.880;2023-02-05T11:10:20;100636.91;;;-1.61;70.22
56270;BME280;42176;43.240;27.880;2023-02-05T11:12:52;100662.06;;;-1.85;73.94
56270;BME280;42176;43.240;27.880;2023-02-05T11:15:29;100649.28;;;-1.04;69.77
56270;BME280;42176;43.240;27.880;2023-02-05T11:18:06;100640.94;;;-0.66;66.91
56270;BME280;42176;43.240;27.880;2023-02-05T11:20:34;100656.47;;;-0.69;63.21
56270;BME280;42176;43.240;27.880;2023-02-05T11:23:20;100631.53;;;-1.42;67.55
56270;BME280;42176;43.240;27.880;2023-02-05T11:25:55;100633.25;;;-1.91;71.86
56270;BME280;42176;43.240;27.880;2023-02-05T11:28:32;100634.09;;;-0.90;69.96
56270;BME280;42176;43.240;27.880;2023-02-05T11:31:20;100644.28;;;-0.43;67.71
56270;BME280;42176;43.240;27.880;2023-02-05T11:33:47;100633.31;;;-0.31;68.71
56270;BME280;42176;43.240;27.880;2023-02-05T11:36:17;100630.63;;;-1.16;71.42
56270;BME280;42176;43.240;27.880;2023-02-05T11:38:51;100624.78;;;-1.85;76.73
56270;BME280;42176;43.240;27.880;2023-02-05T11:43:53;100621.56;;;-0.74;69.01
56270;BME280;42176;43.240;27.880;2023-02-05T11:46:22;100658.25;;;-0.39;66.20
56270;BME280;42176;43.240;27.880;2023-02-05T11:48:55;100636.94;;;-0.26;63.90
56270;BME280;42176;43.240;27.880;2023-02-05T11:51:38;100657.81;;;-0.26;62.54
56270;BME280;42176;43.240;27.880;2023-02-05T11:54:29;100679.06;;;-1.20;64.55
56270;BME280;42176;43.240;27.880;2023-02-05T12:05:06;100666.47;;;-0.54;70.19
56270;BME280;42176;43.240;27.880;2023-02-05T12:07:44;100665.81;;;-0.49;68.24
56270;BME280;42176;43.240;27.880;2023-02-05T12:10:23;100657.16;;;-1.27;70.74
56270;BME280;42176;43.240;27.880;2023-02-05T12:13:02;100649.19;;;-1.81;76.62
56270;BME280;42176;43.240;27.880;2023-02-05T12:15:40;100667.06;;;-0.90;71.93
56270;BME280;42176;43.240;27.880;2023-02-05T12:21:18;100688.00;;;-0.33;64.07
56270;BME280;42176;43.240;27.880;2023-02-05T12:27:07;100692.50;;;-2.05;73.29
56270;BME280;42176;43.240;27.880;2023-02-05T12:29:47;100707.91;;;-1.14;72.85
56270;BME280;42176;43.240;27.880;2023-02-05T12:43:07;100719.16;;;-0.63;67.64
56270;BME280;42176;43.240;27.880;2023-02-05T12:46:00;100702.53;;;-0.94;65.22
56270;BME280;42176;43.240;27.880;2023-02-05T12:59:41;100679.72;;;-1.99;64.77
56270;BME280;42176;43.240;27.880;2023-02-05T13:02:28;100717.19;;;-1.93;65.94
56270;BME280;42176;43.240;27.880;2023-02-05T13:05:17;100712.75;;;-1.49;67.93
56270;BME280;42176;43.240;27.880;2023-02-05T13:07:58;100712.81;;;-0.71;65.93
56270;BME280;42176;43.240;27.880;2023-02-05T13:10:32;100727.09;;;-1.36;67.77
56270;BME280;42176;43.240;27.880;2023-02-05T13:13:02;100751.78;;;-1.72;67.85
56270;BME280;42176;43.240;27.880;2023-02-05T13:15:41;100726.81;;;-1.19;64.56
56270;BME280;42176;43.240;27.880;2023-02-05T13:18:24;100718.94;;;-0.69;61.34
56270;BME280;42176;43.240;27.880;2023-02-05T13:20:57;100740.94;;;-1.60;63.70
56270;BME280;42176;43.240;27.880;2023-02-05T13:23:44;100739.50;;;-1.76;67.14
56270;BME280;42176;43.240;27.880;2023-02-05T13:26:34;100750.13;;;-2.15;66.48
56270;BME280;42176;43.240;27.880;2023-02-05T13:29:23;100701.19;;;-1.57;67.39
56270;BME280;42176;43.240;27.880;2023-02-05T13:31:53;100733.94;;;-0.88;64.58
56270;BME280;42176;43.240;27.880;2023-02-05T13:34:22;100734.53;;;-0.43;60.66
56270;BME280;42176;43.240;27.880;2023-02-05T13:53:28;100706.28;;;-1.83;59.26
56270;BME280;42176;43.240;27.880;2023-02-05T13:58:33;100685.03;;;-1.73;54.93
56270;BME280;42176;43.240;27.880;2023-02-05T14:01:14;100726.47;;;-2.44;59.28
56270;BME280;42176;43.240;27.880;2023-02-05T14:03:57;100705.56;;;-2.47;59.67
56270;BME280;42176;43.240;27.880;2023-02-05T14:06:34;100722.00;;;-2.25;59.65
56270;BME280;42176;43.240;27.880;2023-02-05T14:09:06;100723.91;;;-1.76;59.23
56270;BME280;42176;43.240;27.880;2023-02-05T14:11:53;100743.09;;;-2.18;60.97
56270;BME280;42176;43.240;27.880;2023-02-05T14:16:57;100720.28;;;-2.69;69.01
56270;BME280;42176;43.240;27.880;2023-02-05T14:22:42;100738.63;;;-0.78;63.55
56270;BME280;42176;43.240;27.880;2023-02-05T14:30:35;100738.50;;;-2.46;66.35
56270;BME280;42176;43.240;27.880;2023-02-05T14:38:43;100733.63;;;-3.41;72.12
56270;BME280;42176;43.240;27.880;2023-02-05T14:41:22;100743.34;;;-2.77;71.30
56270;BME280;42176;43.240;27.880;2023-02-05T14:43:58;100733.47;;;-2.20;69.17
56270;BME280;42176;43.240;27.880;2023-02-05T14:51:59;100745.38;;;-3.49;75.10
56270;BME280;42176;43.240;27.880;2023-02-05T14:54:51;100744.69;;;-2.85;72.63
56270;BME280;42176;43.240;27.880;2023-02-05T15:00:21;100755.59;;;-3.72;74.24
56270;BME280;42176;43.240;27.880;2023-02-05T15:03:10;100748.50;;;-3.57;77.58
56270;BME280;42176;43.240;27.880;2023-02-05T15:13:17;100776.81;;;-3.99;76.04
56270;BME280;42176;43.240;27.880;2023-02-05T15:18:32;100786.22;;;-2.64;71.23
56270;BME280;42176;43.240;27.880;2023-02-05T15:20:59;100775.13;;;-3.22;73.72